Time;durP1;ratioP1;P1;durP2;ratioP2;P2;SDS_P1;SDS_P2;PMS_P1;PMS_P2;Temp;Humidity;BMP_temperature;BMP_pressure;BME280_temperature;BME280_humidity;BME280_pressure;Samples;Min_cycle;Max_cycle;Signal;HPM_P1;HPM_P2
2021/04/24 00:00:44;;;;;;;13.80;8.88;;;3.00;99.90;;;;;;5029093;28;21463;-67
2021/04/24 00:03:10;;;;;;;17.98;9.25;;;3.10;99.90;;;;;;5027386;28;20069;-67
2021/04/24 00:05:42;;;;;;;14.57;8.77;;;3.00;99.90;;;;;;5025744;28;20034;-67
2021/04/24 00:08:11;;;;;;;13.95;9.40;;;3.00;99.90;;;;;;5027001;28;20045;-67
2021/04/24 00:10:40;;;;;;;13.65;8.10;;;3.00;99.90;;;;;;5027804;28;20514;-67
2021/04/24 00:13:08;;;;;;;16.50;9.10;;;3.00;99.90;;;;;;5028958;28;20049;-67
2021/04/24 00:15:34;;;;;;;18.25;8.93;;;3.00;99.90;;;;;;5028735;28;20388;-67
2021/04/24 00:18:00;;;;;;;14.57;9.70;;;3.00;99.90;;;;;;5028711;28;20049;-67
2021/04/24 00:20:26;;;;;;;21.88;9.90;;;3.00;99.90;;;;;;5029239;28;20056;-67
2021/04/24 00:22:52;;;;;;;16.95;11.23;;;3.10;99.90;;;;;;5025423;28;20043;-67
2021/04/24 00:25:19;;;;;;;17.85;9.32;;;3.10;99.90;;;;;;5030190;28;20038;-67
2021/04/24 00:27:45;;;;;;;14.70;9.13;;;3.00;99.90;;;;;;5026359;28;20034;-67
2021/04/24 00:30:13;;;;;;;17.65;10.70;;;3.00;99.90;;;;;;5031096;28;20044;-67
2021/04/24 00:32:39;;;;;;;14.63;9.82;;;3.10;99.90;;;;;;5028565;28;20492;-67
2021/04/24 00:35:07;;;;;;;15.38;9.45;;;3.00;99.90;;;;;;5022907;28;20438;-67
2021/04/24 00:37:32;;;;;;;15.05;9.63;;;3.00;99.90;;;;;;5029945;28;20040;-67
2021/04/24 00:39:58;;;;;;;18.15;9.48;;;2.90;99.90;;;;;;5030224;28;20033;-67
2021/04/24 00:42:24;;;;;;;13.80;8.55;;;2.80;99.90;;;;;;5027816;28;20041;-67
2021/04/24 00:44:51;;;;;;;11.80;8.55;;;2.70;99.90;;;;;;5027002;28;20506;-67
2021/04/24 00:47:19;;;;;;;15.45;9.27;;;2.70;99.90;;;;;;5029428;28;20561;-67
2021/04/24 00:49:45;;;;;;;16.38;9.07;;;2.60;99.90;;;;;;5028477;28;20148;-67
2021/04/24 00:52:10;;;;;;;16.23;9.05;;;2.60;99.90;;;;;;5026801;28;20531;-67
2021/04/24 00:54:36;;;;;;;15.52;8.73;;;2.60;99.90;;;;;;5030915;28;20156;-67
2021/04/24 00:57:02;;;;;;;17.52;9.75;;;2.70;99.90;;;;;;5029591;28;20072;-67
2021/04/24 00:59:29;;;;;;;14.63;9.30;;;2.60;99.90;;;;;;5028261;28;20044;-67
2021/04/24 01:01:55;;;;;;;12.45;8.48;;;2.60;99.90;;;;;;5026697;28;20480;-67
2021/04/24 01:04:21;;;;;;;16.05;8.95;;;2.60;99.90;;;;;;5028935;28;20037;-67
2021/04/24 01:06:48;;;;;;;17.13;9.13;;;2.70;99.90;;;;;;5024534;28;20997;-67
2021/04/24 01:09:14;;;;;;;15.40;9.73;;;2.70;99.90;;;;;;5027874;28;20038;-67
2021/04/24 01:11:40;;;;;;;14.02;9.05;;;2.90;99.90;;;;;;5029346;28;20041;-67
2021/04/24 01:14:06;;;;;;;14.40;8.73;;;2.70;99.90;;;;;;5029549;28;20049;-67
2021/04/24 01:16:32;;;;;;;13.82;8.52;;;2.70;99.90;;;;;;5026517;28;20037;-67
2021/04/24 01:18:58;;;;;;;19.02;9.77;;;2.80;99.90;;;;;;5027241;28;20440;-67
2021/04/24 01:21:26;;;;;;;12.90;7.82;;;2.70;99.90;;;;;;5025350;28;20037;-67
2021/04/24 01:23:52;;;;;;;15.35;10.35;;;2.70;99.90;;;;;;5024099;28;20033;-67
2021/04/24 01:26:17;;;;;;;15.75;9.80;;;2.80;99.90;;;;;;5025259;28;20042;-67
2021/04/24 01:28:44;;;;;;;17.27;10.00;;;2.70;99.90;;;;;;5029299;28;20043;-67
2021/04/24 01:31:10;;;;;;;10.82;8.05;;;2.80;99.90;;;;;;5026738;28;20473;-67
2021/04/24 01:33:36;;;;;;;16.25;9.27;;;2.70;99.90;;;;;;5027971;28;20152;-67
2021/04/24 01:36:03;;;;;;;18.00;9.70;;;2.60;99.90;;;;;;5025188;28;20096;-67
2021/04/24 01:38:28;;;;;;;17.50;10.48;;;2.60;99.90;;;;;;5026700;28;20123;-67
2021/04/24 01:40:54;;;;;;;16.08;8.70;;;2.50;99.90;;;;;;5029660;28;20087;-67
2021/04/24 01:43:20;;;;;;;16.27;9.27;;;2.40;99.90;;;;;;5026450;28;20037;-67
2021/04/24 01:45:46;;;;;;;15.88;9.35;;;2.40;99.90;;;;;;5023757;28;20038;-67
2021/04/24 01:48:11;;;;;;;16.45;10.05;;;2.40;99.90;;;;;;5026792;28;20041;-67
2021/04/24 01:50:41;;;;;;;17.15;9.65;;;2.40;99.90;;;;;;5025209;28;20044;-67
2021/04/24 01:53:09;;;;;;;19.98;9.93;;;2.50;99.90;;;;;;5028724;28;20052;-67
2021/04/24 01:55:38;;;;;;;19.90;10.00;;;2.30;99.90;;;;;;5028512;28;20087;-67
2021/04/24 01:58:09;;;;;;;14.90;9.35;;;2.30;99.90;;;;;;5023464;28;20377;-67
2021/04/24 02:00:42;;;;;;;17.13;9.52;;;2.20;99.90;;;;;;5027980;28;20041;-67
2021/04/24 02:03:11;;;;;;;14.38;9.48;;;2.20;99.90;;;;;;5026574;28;20037;-67
2021/04/24 02:05:37;;;;;;;15.00;8.73;;;2.30;99.90;;;;;;5025088;28;21090;-67
2021/04/24 02:08:09;;;;;;;17.30;9.48;;;2.30;99.90;;;;;;5027245;28;20037;-67
2021/04/24 02:10:37;;;;;;;16.08;9.15;;;2.30;99.90;;;;;;5028634;28;20052;-67
2021/04/24 02:13:17;;;;;;;18.33;9.70;;;2.20;99.90;;;;;;5023960;28;20053;-67
2021/04/24 02:15:43;;;;;;;21.15;10.60;;;2.20;99.90;;;;;;5025847;28;20435;-67
2021/04/24 02:18:09;;;;;;;15.68;8.75;;;2.10;99.90;;;;;;5027465;28;20045;-67
2021/04/24 02:20:37;;;;;;;15.13;8.95;;;2.10;99.90;;;;;;5028236;28;20048;-67
2021/04/24 02:23:04;;;;;;;16.73;9.55;;;2.20;99.90;;;;;;5023760;28;20065;-67
2021/04/24 02:25:30;;;;;;;19.05;9.45;;;2.20;99.90;;;;;;5024347;28;20047;-67
2021/04/24 02:27:55;;;;;;;18.08;10.07;;;2.20;99.90;;;;;;5027521;28;20041;-67
2021/04/24 02:30:25;;;;;;;21.73;10.02;;;2.20;99.90;;;;;;5025713;28;20041;-67
2021/04/24 02:32:51;;;;;;;16.70;9.48;;;2.10;99.90;;;;;;5027283;28;20611;-67
2021/04/24 02:35:20;;;;;;;23.25;10.38;;;2.20;99.90;;;;;;5027825;28;20096;-67
2021/04/24 02:37:46;;;;;;;16.63;9.88;;;2.20;99.90;;;;;;5026753;28;20497;-67
2021/04/24 02:40:18;;;;;;;18.27;9.95;;;2.10;99.90;;;;;;5024670;28;20053;-67
2021/04/24 02:42:44;;;;;;;17.95;9.73;;;2.10;99.90;;;;;;5025557;28;20087;-67
2021/04/24 02:45:12;;;;;;;22.00;10.30;;;2.10;99.90;;;;;;5025289;28;20033;-67
2021/04/24 02:47:38;;;;;;;16.33;10.10;;;2.10;99.90;;;;;;5026888;28;20041;-67
2021/04/24 02:50:06;;;;;;;19.02;10.02;;;2.00;99.90;;;;;;5039103;28;20514;-67
2021/04/24 02:52:32;;;;;;;20.27;9.52;;;2.10;99.90;;;;;;5026642;28;20498;-67
2021/04/24 02:54:58;;;;;;;18.58;9.63;;;2.10;99.90;;;;;;5023253;28;20038;-67
2021/04/24 02:57:23;;;;;;;19.42;9.60;;;2.20;99.90;;;;;;5026569;28;20033;-67
2021/04/24 02:59:50;;;;;;;16.80;9.20;;;2.20;99.90;;;;;;5025708;28;20025;-67
2021/04/24 03:02:16;;;;;;;11.77;8.18;;;2.20;99.90;;;;;;5027353;28;20041;-67
2021/04/24 03:04:43;;;;;;;14.25;8.70;;;2.20;99.90;;;;;;5026804;28;20203;-67
2021/04/24 03:07:09;;;;;;;13.82;7.85;;;2.20;99.90;;;;;;5028182;28;20841;-67
2021/04/24 03:09:35;;;;;;;15.38;7.72;;;2.20;99.90;;;;;;5027094;28;20051;-67
2021/04/24 03:12:01;;;;;;;11.35;7.43;;;2.20;99.90;;;;;;5022253;28;20111;-67
2021/04/24 03:14:27;;;;;;;11.85;7.43;;;2.10;99.90;;;;;;5024161;28;20034;-67
2021/04/24 03:16:53;;;;;;;11.98;7.97;;;2.00;99.90;;;;;;5024660;28;20044;-67
2021/04/24 03:19:19;;;;;;;21.75;9.35;;;2.10;99.90;;;;;;5028197;28;20037;-67
2021/04/24 03:21:44;;;;;;;15.52;8.07;;;2.00;99.90;;;;;;5027177;28;20048;-67
2021/04/24 03:24:10;;;;;;;11.95;8.52;;;2.00;99.90;;;;;;5027029;28;20442;-67
2021/04/24 03:26:36;;;;;;;13.40;8.00;;;2.00;99.90;;;;;;5022240;28;20120;-67
2021/04/24 03:29:03;;;;;;;15.80;8.30;;;1.90;99.90;;;;;;5027701;28;20124;-67
2021/04/24 03:31:29;;;;;;;16.73;8.52;;;1.90;99.90;;;;;;5031880;28;20112;-67
2021/04/24 03:33:55;;;;;;;14.57;9.18;;;1.90;99.90;;;;;;5031198;28;20136;-67
2021/04/24 03:36:21;;;;;;;20.02;10.15;;;1.90;99.90;;;;;;5031339;28;20025;-67
2021/04/24 03:38:47;;;;;;;15.90;8.80;;;1.80;99.90;;;;;;5030271;28;20041;-67
2021/04/24 03:41:13;;;;;;;18.58;10.13;;;1.90;99.90;;;;;;5025800;28;20049;-67
2021/04/24 03:43:39;;;;;;;17.95;9.27;;;1.80;99.90;;;;;;5029969;28;20164;-67
2021/04/24 03:46:05;;;;;;;19.13;9.60;;;1.90;99.90;;;;;;5030164;28;20052;-67
2021/04/24 03:48:32;;;;;;;22.27;10.82;;;2.00;99.90;;;;;;5031371;28;20037;-67
2021/04/24 03:50:59;;;;;;;17.00;9.43;;;2.00;99.90;;;;;;5030079;28;21591;-67
2021/04/24 03:53:25;;;;;;;17.23;9.40;;;2.10;99.90;;;;;;5030240;28;20651;-67
2021/04/24 03:55:50;;;;;;;14.70;8.10;;;1.90;99.90;;;;;;5037512;28;20048;-67
2021/04/24 03:58:17;;;;;;;15.23;8.98;;;1.90;99.90;;;;;;5025965;28;20499;-67
2021/04/24 04:00:43;;;;;;;14.07;7.95;;;1.90;99.90;;;;;;5028203;28;20048;-67
2021/04/24 04:03:09;;;;;;;15.98;8.18;;;1.90;99.90;;;;;;5029764;28;20041;-67
2021/04/24 04:05:38;;;;;;;14.10;8.25;;;1.90;99.90;;;;;;5029206;28;20535;-67
2021/04/24 04:08:06;;;;;;;15.80;8.48;;;1.80;99.90;;;;;;5029385;28;20076;-67
2021/04/24 04:10:32;;;;;;;15.43;7.85;;;1.70;99.90;;;;;;5031573;28;20042;-67
2021/04/24 04:12:59;;;;;;;23.63;8.77;;;1.90;99.90;;;;;;5025468;28;20052;-67
2021/04/24 04:15:26;;;;;;;14.98;8.13;;;1.80;99.90;;;;;;5028446;28;20037;-67
2021/04/24 04:17:58;;;;;;;14.70;7.57;;;1.80;99.90;;;;;;5029034;28;20037;-67
2021/04/24 04:20:24;;;;;;;10.55;7.70;;;1.90;99.90;;;;;;5029839;28;20437;-67
2021/04/24 04:22:50;;;;;;;15.55;7.90;;;1.90;99.90;;;;;;5027568;28;20116;-67
2021/04/24 04:25:16;;;;;;;15.00;7.97;;;2.00;99.90;;;;;;5028943;28;20044;-67
2021/04/24 04:27:43;;;;;;;25.90;9.02;;;2.10;99.90;;;;;;5026640;28;20399;-67
2021/04/24 04:30:13;;;;;;;10.18;6.43;;;2.10;99.90;;;;;;5025530;28;20053;-67
2021/04/24 04:32:40;;;;;;;14.10;7.50;;;2.10;99.90;;;;;;5029263;28;20391;-67
2021/04/24 04:35:08;;;;;;;11.77;5.32;;;2.20;99.90;;;;;;5028513;28;20092;-67
2021/04/24 04:37:34;;;;;;;12.32;5.45;;;2.20;99.90;;;;;;5024819;28;20064;-67
2021/04/24 04:40:00;;;;;;;8.70;4.78;;;2.30;99.90;;;;;;5028034;28;20475;-67
2021/04/24 04:42:26;;;;;;;11.90;5.70;;;2.40;99.90;;;;;;5025961;28;20052;-67
2021/04/24 04:44:52;;;;;;;8.00;4.90;;;2.50;99.90;;;;;;5025411;28;20037;-67
2021/04/24 04:47:18;;;;;;;10.35;5.78;;;2.50;99.90;;;;;;5028354;28;20037;-67
2021/04/24 04:49:44;;;;;;;12.70;4.97;;;2.60;99.90;;;;;;5027904;28;20746;-67
2021/04/24 04:52:10;;;;;;;7.10;4.72;;;2.80;99.90;;;;;;5028132;28;20041;-67
2021/04/24 04:54:36;;;;;;;5.88;3.78;;;2.90;99.90;;;;;;5008593;28;563448;-67
2021/04/24 04:57:02;;;;;;;9.20;4.88;;;3.10;99.90;;;;;;5028128;28;20048;-67
2021/04/24 04:59:28;;;;;;;12.02;5.75;;;3.20;99.90;;;;;;5029372;28;20132;-67
2021/04/24 05:01:57;;;;;;;6.53;4.80;;;3.40;99.90;;;;;;5026212;28;20037;-67
2021/04/24 05:04:23;;;;;;;12.68;4.63;;;3.50;99.90;;;;;;5030541;28;20041;-67
2021/04/24 05:06:49;;;;;;;7.35;5.00;;;3.80;99.90;;;;;;5028579;28;20565;-67
2021/04/24 05:09:18;;;;;;;12.30;5.57;;;4.40;99.90;;;;;;5029583;28;20041;-68
2021/04/24 05:11:44;;;;;;;18.33;5.85;;;5.00;99.30;;;;;;5027325;28;20092;-68
2021/04/24 05:14:09;;;;;;;18.67;6.40;;;5.50;98.80;;;;;;5028692;28;20641;-67
2021/04/24 05:16:35;;;;;;;15.07;6.57;;;6.10;97.60;;;;;;5026081;28;20068;-67
2021/04/24 05:19:02;;;;;;;16.38;5.25;;;6.40;96.60;;;;;;5029329;28;20045;-67
2021/04/24 05:21:28;;;;;;;6.88;4.97;;;6.50;96.10;;;;;;5023021;28;20384;-67
2021/04/24 05:23:55;;;;;;;10.57;5.43;;;6.60;95.20;;;;;;5024228;28;20103;-67
2021/04/24 05:26:21;;;;;;;10.02;5.85;;;6.70;95.00;;;;;;5024329;28;20059;-68
2021/04/24 05:28:47;;;;;;;8.50;5.15;;;6.90;95.00;;;;;;5027118;28;20047;-69
2021/04/24 05:31:13;;;;;;;22.27;6.22;;;7.40;94.90;;;;;;5023323;28;20072;-68
2021/04/24 05:33:39;;;;;;;18.95;6.70;;;8.30;93.90;;;;;;5023630;28;20120;-68
2021/04/24 05:36:09;;;;;;;14.95;7.28;;;9.40;93.00;;;;;;5027092;28;20379;-68
2021/04/24 05:38:35;;;;;;;15.30;6.78;;;10.70;91.50;;;;;;5023326;28;20475;-68
2021/04/24 05:41:01;;;;;;;16.05;7.82;;;11.50;89.20;;;;;;5024888;28;20462;-68
2021/04/24 05:43:27;;;;;;;13.90;7.63;;;11.60;87.00;;;;;;5028824;28;20053;-68
2021/04/24 05:45:53;;;;;;;8.40;7.32;;;11.80;86.90;;;;;;5026568;28;20579;-68
2021/04/24 05:48:18;;;;;;;10.80;7.85;;;12.40;86.00;;;;;;5025505;28;20045;-69
2021/04/24 05:50:44;;;;;;;12.05;7.57;;;13.00;83.70;;;;;;5028590;28;20655;-69
2021/04/24 05:53:09;;;;;;;13.30;7.65;;;13.60;81.90;;;;;;5026954;28;20029;-69
2021/04/24 05:55:36;;;;;;;8.75;6.60;;;13.80;79.20;;;;;;5026175;28;20092;-69
2021/04/24 05:58:03;;;;;;;10.23;7.38;;;13.90;78.90;;;;;;5025623;28;20064;-69
2021/04/24 06:00:29;;;;;;;11.75;6.93;;;13.90;78.00;;;;;;5026707;28;20037;-69
2021/04/24 06:02:55;;;;;;;11.45;6.53;;;14.80;76.20;;;;;;5028060;28;20324;-69
2021/04/24 06:05:21;;;;;;;10.05;7.13;;;15.00;72.40;;;;;;5023957;28;20728;-69
2021/04/24 06:07:47;;;;;;;11.85;7.50;;;15.60;71.70;;;;;;5026348;28;20038;-69
2021/04/24 06:10:15;;;;;;;8.43;6.20;;;15.70;67.40;;;;;;5026525;28;20499;-69
2021/04/24 06:12:50;;;;;;;7.78;6.50;;;16.20;67.10;;;;;;5025175;28;20709;-69
2021/04/24 06:15:18;;;;;;;8.27;6.70;;;17.20;64.50;;;;;;5026973;28;20104;-69
2021/04/24 06:17:44;;;;;;;11.90;6.85;;;18.10;61.30;;;;;;5028731;28;20060;-70
2021/04/24 06:20:11;;;;;;;10.88;6.80;;;17.80;60.10;;;;;;5023238;28;20585;-69
2021/04/24 06:22:39;;;;;;;11.27;6.70;;;18.50;56.20;;;;;;5027309;28;20041;-70
2021/04/24 06:25:06;;;;;;;10.85;6.88;;;18.80;56.40;;;;;;5025398;28;20043;-70
2021/04/24 06:27:32;;;;;;;11.80;6.22;;;19.00;54.70;;;;;;5028061;28;20041;-69
2021/04/24 06:29:58;;;;;;;10.98;6.15;;;19.70;55.00;;;;;;5026691;28;20128;-70
2021/04/24 06:32:24;;;;;;;7.65;5.45;;;20.00;54.70;;;;;;5026577;28;20059;-70
2021/04/24 06:34:50;;;;;;;6.90;6.00;;;19.80;52.70;;;;;;5023257;28;20041;-70
2021/04/24 06:37:16;;;;;;;9.23;5.95;;;19.80;50.60;;;;;;5025188;28;20052;-70
2021/04/24 06:39:41;;;;;;;11.05;6.50;;;19.10;53.20;;;;;;5021514;28;20049;-70
2021/04/24 06:42:07;;;;;;;12.30;6.30;;;18.60;54.50;;;;;;5025548;28;20041;-70
2021/04/24 06:44:33;;;;;;;9.95;5.70;;;17.80;56.90;;;;;;5022791;28;20099;-70
2021/04/24 06:46:58;;;;;;;8.30;6.32;;;17.50;58.60;;;;;;5025917;28;20037;-70
2021/04/24 06:49:24;;;;;;;11.52;6.13;;;16.80;59.10;;;;;;5027479;28;20477;-70
2021/04/24 06:51:51;;;;;;;10.60;5.10;;;16.60;60.90;;;;;;5026067;28;20037;-70
2021/04/24 06:54:16;;;;;;;6.38;4.15;;;16.10;59.70;;;;;;5023439;28;20049;-69
2021/04/24 06:56:42;;;;;;;7.68;4.18;;;15.90;61.90;;;;;;5025074;28;20131;-70
2021/04/24 06:59:08;;;;;;;7.95;4.38;;;15.10;62.70;;;;;;5026191;28;20037;-70
2021/04/24 07:01:34;;;;;;;8.40;4.95;;;14.50;65.60;;;;;;5024710;28;20048;-69
2021/04/24 07:04:00;;;;;;;8.88;4.80;;;14.40;70.30;;;;;;5026798;28;20156;-69
2021/04/24 07:06:26;;;;;;;14.60;4.28;;;14.20;70.80;;;;;;5027725;28;20167;-69
2021/04/24 07:08:52;;;;;;;10.88;3.78;;;13.60;70.60;;;;;;5023299;28;20042;-70
2021/04/24 07:11:17;;;;;;;10.35;4.20;;;13.00;72.90;;;;;;5027667;28;20045;-69
2021/04/24 07:13:43;;;;;;;11.00;3.80;;;12.70;74.60;;;;;;5025369;28;20052;-69
2021/04/24 07:16:11;;;;;;;10.38;4.22;;;12.10;75.20;;;;;;5026431;28;20364;-69
2021/04/24 07:18:38;;;;;;;8.25;4.28;;;11.70;79.60;;;;;;5026856;28;20510;-68
2021/04/24 07:21:05;;;;;;;16.65;4.22;;;11.30;79.10;;;;;;5026893;28;20045;-68
2021/04/24 07:23:32;;;;;;;12.32;4.80;;;11.30;82.00;;;;;;5026737;28;20140;-68
2021/04/24 07:25:59;;;;;;;9.02;3.58;;;11.40;84.60;;;;;;5027149;28;20463;-68
2021/04/24 07:28:25;;;;;;;7.55;3.03;;;11.50;85.00;;;;;;5023629;28;20037;-68
2021/04/24 07:30:51;;;;;;;9.77;4.03;;;11.30;82.80;;;;;;5027408;28;20388;-68
2021/04/24 07:33:17;;;;;;;8.95;3.42;;;11.40;85.90;;;;;;5027410;28;20048;-68
2021/04/24 07:35:42;;;;;;;6.93;2.88;;;11.30;85.00;;;;;;5026202;28;20033;-68
2021/04/24 07:38:08;;;;;;;9.00;2.50;;;11.40;84.10;;;;;;5027962;28;20065;-68
2021/04/24 07:40:34;;;;;;;5.35;2.92;;;11.20;79.90;;;;;;5022273;28;20399;-68
2021/04/24 07:43:00;;;;;;;11.70;2.90;;;10.80;80.70;;;;;;5024563;28;20053;-68
2021/04/24 07:45:25;;;;;;;7.15;3.92;;;10.50;82.20;;;;;;5026440;28;20092;-68
2021/04/24 07:47:51;;;;;;;13.73;4.03;;;10.50;84.80;;;;;;5026917;28;20492;-68
2021/04/24 07:50:18;;;;;;;17.13;4.22;;;10.90;85.80;;;;;;5025816;28;20400;-68
2021/04/24 07:52:45;;;;;;;9.10;3.65;;;11.40;87.20;;;;;;5025075;28;20041;-69
2021/04/24 07:55:12;;;;;;;9.23;3.58;;;11.70;84.80;;;;;;5025163;28;20565;-69
2021/04/24 07:57:38;;;;;;;10.00;4.43;;;12.00;84.50;;;;;;5025899;28;20065;-69
2021/04/24 08:00:08;;;;;;;11.10;4.05;;;12.00;82.20;;;;;;5023277;28;20126;-69
2021/04/24 08:02:34;;;;;;;7.85;3.65;;;12.30;84.00;;;;;;5026420;28;20042;-70
2021/04/24 08:05:01;;;;;;;10.70;3.80;;;12.30;79.60;;;;;;5025925;28;20407;-69
2021/04/24 08:07:27;;;;;;;9.10;3.67;;;12.30;80.30;;;;;;5027422;28;20518;-69
2021/04/24 08:09:53;;;;;;;6.72;3.63;;;12.10;79.00;;;;;;5024040;28;20049;-69
2021/04/24 08:12:19;;;;;;;13.45;4.25;;;12.00;80.80;;;;;;5025367;28;20494;-69
2021/04/24 08:14:45;;;;;;;7.60;3.30;;;12.20;81.80;;;;;;5027751;28;20057;-69
2021/04/24 08:17:13;;;;;;;9.18;3.67;;;12.30;81.20;;;;;;5029641;28;20670;-69
2021/04/24 08:19:39;;;;;;;8.07;3.58;;;12.10;77.90;;;;;;5030058;28;20045;-69
2021/04/24 08:22:07;;;;;;;9.20;3.05;;;12.10;78.80;;;;;;5027192;28;20053;-69
2021/04/24 08:24:33;;;;;;;7.63;3.15;;;12.10;75.70;;;;;;5026467;28;20149;-69
2021/04/24 08:26:59;;;;;;;7.15;3.42;;;11.70;78.10;;;;;;5027805;28;20045;-69
2021/04/24 08:29:25;;;;;;;15.80;3.83;;;11.60;75.70;;;;;;5029284;28;20044;-69
2021/04/24 08:31:51;;;;;;;7.05;2.97;;;11.70;81.40;;;;;;5026880;28;20041;-69
2021/04/24 08:34:25;;;;;;;16.63;3.42;;;12.20;81.10;;;;;;5030001;28;20534;-69
2021/04/24 08:36:52;;;;;;;4.65;2.42;;;12.50;79.60;;;;;;5027124;28;20041;-69
2021/04/24 08:39:18;;;;;;;11.88;4.68;;;12.20;72.60;;;;;;5029709;28;20499;-69
2021/04/24 08:41:44;;;;;;;11.75;4.38;;;12.10;78.60;;;;;;5026430;28;20136;-69
2021/04/24 08:44:14;;;;;;;13.23;3.40;;;12.10;78.50;;;;;;5028239;28;20106;-69
2021/04/24 08:46:40;;;;;;;7.32;2.78;;;12.30;79.20;;;;;;5028289;28;20371;-69
2021/04/24 08:49:06;;;;;;;9.45;2.65;;;12.10;74.40;;;;;;5029416;28;20042;-69
2021/04/24 08:51:32;;;;;;;7.72;3.17;;;12.40;75.70;;;;;;5024839;28;20045;-69
2021/04/24 08:53:59;;;;;;;9.68;2.92;;;12.70;76.70;;;;;;5029069;28;20041;-69
2021/04/24 08:56:26;;;;;;;6.80;2.80;;;13.10;75.70;;;;;;5027462;28;20042;-69
2021/04/24 08:58:53;;;;;;;7.07;2.47;;;13.30;70.10;;;;;;5025513;28;20550;-69
2021/04/24 09:01:21;;;;;;;8.00;2.92;;;12.70;70.90;;;;;;5027789;28;20074;-69
2021/04/24 09:03:47;;;;;;;9.02;3.20;;;12.70;70.10;;;;;;5025175;28;20045;-69
2021/04/24 09:06:13;;;;;;;11.43;3.92;;;12.40;69.70;;;;;;5026414;28;20037;-69
2021/04/24 09:08:54;;;;;;;8.45;3.75;;;12.80;74.60;;;;;;5029634;28;20063;-69
2021/04/24 09:11:21;;;;;;;8.25;3.55;;;12.80;68.70;;;;;;5029481;28;20049;-69
2021/04/24 09:13:59;;;;;;;10.77;2.80;;;12.60;71.40;;;;;;5030083;28;20052;-70
2021/04/24 09:16:27;;;;;;;7.72;2.47;;;12.60;68.10;;;;;;5026222;28;20037;-69
2021/04/24 09:18:54;;;;;;;10.13;3.00;;;12.70;72.50;;;;;;5028902;28;20048;-69
2021/04/24 09:21:25;;;;;;;6.38;2.90;;;12.80;71.70;;;;;;5023604;28;20049;-69
2021/04/24 09:23:51;;;;;;;12.00;2.95;;;12.60;71.90;;;;;;5028132;28;20423;-69
2021/04/24 09:26:21;;;;;;;6.97;3.50;;;12.80;73.40;;;;;;5024227;28;20069;-69
2021/04/24 09:28:50;;;;;;;10.85;2.88;;;12.80;70.30;;;;;;5027264;28;20442;-69
2021/04/24 09:31:17;;;;;;;7.93;2.70;;;13.00;72.40;;;;;;5026238;28;20045;-69
2021/04/24 09:33:49;;;;;;;8.82;2.88;;;13.30;73.00;;;;;;5023368;28;20037;-69
2021/04/24 09:36:17;;;;;;;6.68;1.95;;;13.70;72.10;;;;;;5027425;28;20049;-69
2021/04/24 09:38:45;;;;;;;4.38;1.95;;;13.50;61.40;;;;;;5028025;28;20033;-69
2021/04/24 09:41:17;;;;;;;8.43;3.53;;;12.90;55.50;;;;;;5025338;28;20042;-69
2021/04/24 09:43:53;;;;;;;7.55;2.78;;;13.20;67.90;;;;;;5028106;28;20048;-69
2021/04/24 09:46:20;;;;;;;9.93;3.08;;;13.50;70.00;;;;;;5026903;28;20033;-69
2021/04/24 09:48:46;;;;;;;13.73;3.05;;;13.50;68.80;;;;;;5023617;28;20045;-69
2021/04/24 09:51:17;;;;;;;10.23;2.90;;;13.60;67.50;;;;;;5028684;28;20034;-70
2021/04/24 09:53:57;;;;;;;8.88;2.78;;;13.80;69.70;;;;;;5024331;28;20415;-69
2021/04/24 09:56:24;;;;;;;10.05;2.88;;;14.10;69.10;;;;;;5025166;28;20053;-70
2021/04/24 09:58:50;;;;;;;10.02;3.03;;;13.80;61.40;;;;;;5027867;28;20060;-69
2021/04/24 10:01:24;;;;;;;8.73;2.65;;;13.90;67.70;;;;;;5027185;28;20068;-69
2021/04/24 10:03:52;;;;;;;9.55;2.95;;;13.70;62.40;;;;;;5024148;28;20041;-69
2021/04/24 10:06:38;;;;;;;8.32;2.30;;;13.30;62.60;;;;;;5028649;28;20041;-70
2021/04/24 10:09:12;;;;;;;7.43;2.30;;;12.90;63.60;;;;;;5025389;28;20047;-69
2021/04/24 10:11:39;;;;;;;8.25;2.38;;;12.90;69.50;;;;;;5027552;28;20430;-69
2021/04/24 10:14:05;;;;;;;5.32;1.80;;;13.30;68.20;;;;;;5028337;28;20049;-68
2021/04/24 10:16:33;;;;;;;5.13;1.70;;;13.30;62.10;;;;;;5028178;28;20555;-69
2021/04/24 10:19:07;;;;;;;9.40;2.13;;;13.40;58.50;;;;;;5023196;28;20112;-69
2021/04/24 10:21:36;;;;;;;7.75;2.10;;;13.40;61.20;;;;;;5027571;28;20049;-69
2021/04/24 10:24:04;;;;;;;7.85;2.28;;;13.00;59.00;;;;;;5023966;28;20049;-69
2021/04/24 10:26:30;;;;;;;8.00;2.13;;;12.80;58.90;;;;;;5026668;28;20037;-69
2021/04/24 10:29:01;;;;;;;8.05;2.40;;;12.90;61.90;;;;;;5026644;28;20554;-69
2021/04/24 10:31:28;;;;;;;8.05;2.30;;;13.00;60.50;;;;;;5026220;28;20511;-68
2021/04/24 10:33:59;;;;;;;7.88;2.63;;;13.10;61.60;;;;;;5026268;28;20060;-69
2021/04/24 10:36:26;;;;;;;13.93;2.53;;;13.30;63.70;;;;;;5026772;28;20044;-69
2021/04/24 10:38:53;;;;;;;7.65;2.95;;;13.30;61.20;;;;;;5025876;28;20041;-69
2021/04/24 10:41:35;;;;;;;10.45;2.42;;;13.40;61.30;;;;;;5027460;28;20037;-69
2021/04/24 10:44:20;;;;;;;7.18;1.90;;;13.40;63.70;;;;;;5024253;28;20045;-69
2021/04/24 10:46:52;;;;;;;7.75;2.15;;;13.50;62.60;;;;;;5025915;28;20045;-69
2021/04/24 10:49:21;;;;;;;9.10;2.88;;;13.60;60.00;;;;;;5023611;28;20365;-69
2021/04/24 10:51:58;;;;;;;5.50;1.90;;;13.60;57.00;;;;;;5021113;28;20509;-69
2021/04/24 10:54:26;;;;;;;6.00;2.30;;;13.60;57.40;;;;;;5025900;28;20065;-69
2021/04/24 10:56:52;;;;;;;4.40;1.10;;;13.70;57.90;;;;;;5027056;28;20029;-69
2021/04/24 10:59:29;;;;;;;9.80;1.30;;;13.80;54.70;;;;;;5024299;28;20113;-69
2021/04/24 11:02:12;;;;;;;9.85;1.20;;;13.30;52.60;;;;;;5025039;28;20033;-69
2021/04/24 11:04:40;;;;;;;5.07;0.95;;;12.80;51.60;;;;;;5026047;28;20049;-69
2021/04/24 11:07:22;;;;;;;3.28;0.95;;;12.50;50.60;;;;;;5022528;28;20053;-70
2021/04/24 11:10:24;;;;;;;2.42;0.82;;;12.20;51.90;;;;;;5027190;28;20041;-69
2021/04/24 11:12:50;;;;;;;2.70;0.88;;;12.00;50.60;;;;;;5025541;28;20111;-69
2021/04/24 11:15:18;;;;;;;4.40;1.38;;;12.20;53.00;;;;;;5025393;28;20068;-69
2021/04/24 11:17:45;;;;;;;4.85;1.15;;;12.30;56.80;;;;;;5023280;28;20040;-69
2021/04/24 11:20:12;;;;;;;3.10;1.23;;;12.50;52.60;;;;;;5026958;28;20049;-68
2021/04/24 11:22:40;;;;;;;4.05;1.23;;;12.50;53.50;;;;;;5023679;28;20045;-69
2021/04/24 11:25:16;;;;;;;6.53;1.10;;;12.70;54.90;;;;;;5026477;28;20055;-73
2021/04/24 11:28:04;;;;;;;8.57;1.25;;;12.70;53.20;;;;;;5023755;28;20506;-71
2021/04/24 11:30:50;;;;;;;4.50;1.00;;;13.10;52.20;;;;;;5022828;28;20377;-71
2021/04/24 11:33:39;;;;;;;;;;;13.40;51.50;;;;;;5027205;28;20044;-71
2021/04/24 11:39:05;;;;;;;15.73;3.22;;;13.50;55.70;;;;;;5025914;28;20045;-71
2021/04/24 11:41:44;;;;;;;14.82;1.70;;;13.60;52.50;;;;;;5022911;28;20486;-72
2021/04/24 11:44:16;;;;;;;6.13;1.60;;;13.70;52.00;;;;;;5026996;28;20127;-71
2021/04/24 11:46:47;;;;;;;8.13;1.75;;;13.70;53.80;;;;;;5026205;28;20041;-72
2021/04/24 11:49:24;;;;;;;10.35;1.95;;;13.80;54.40;;;;;;5025858;28;20034;-71
2021/04/24 11:51:53;;;;;;;8.07;1.50;;;13.80;54.20;;;;;;5029242;28;20036;-71
2021/04/24 11:54:29;;;;;;;4.47;1.20;;;13.70;54.40;;;;;;5029389;28;20038;-71
2021/04/24 11:56:57;;;;;;;18.92;2.00;;;13.80;54.20;;;;;;5026549;28;20394;-71
2021/04/24 11:59:25;;;;;;;10.50;2.35;;;13.50;51.80;;;;;;5031247;28;20045;-70
2021/04/24 12:01:52;;;;;;;12.75;2.30;;;13.50;54.20;;;;;;5026437;28;20133;-70
2021/04/24 12:04:36;;;;;;;8.68;1.80;;;13.50;55.80;;;;;;5027045;28;20037;-71
2021/04/24 12:07:04;;;;;;;5.30;1.45;;;13.60;56.70;;;;;;5030154;28;20042;-72
2021/04/24 12:09:43;;;;;;;9.40;1.67;;;13.70;55.20;;;;;;5028465;28;21449;-71
2021/04/24 12:12:09;;;;;;;4.28;1.35;;;13.80;52.40;;;;;;5043718;28;20068;-71
2021/04/24 12:14:34;;;;;;;4.38;1.70;;;13.60;53.40;;;;;;5029519;28;20069;-72
2021/04/24 12:17:07;;;;;;;10.35;2.42;;;13.70;57.30;;;;;;5023959;28;20053;-71
2021/04/24 12:19:39;;;;;;;5.10;1.33;;;13.70;54.50;;;;;;5031394;28;20041;-71
2021/04/24 12:22:17;;;;;;;4.90;1.08;;;13.70;51.30;;;;;;5028159;28;20373;-71
2021/04/24 12:24:50;;;;;;;8.07;1.15;;;13.60;53.00;;;;;;5031181;28;20053;-72
2021/04/24 12:27:28;;;;;;;11.27;2.17;;;13.70;53.40;;;;;;5027654;28;20057;-70
2021/04/24 12:29:58;;;;;;;8.27;1.55;;;13.70;53.60;;;;;;5026255;28;20045;-71
2021/04/24 12:32:31;;;;;;;7.68;1.42;;;13.90;53.90;;;;;;5029790;28;20044;-70
2021/04/24 12:35:09;;;;;;;7.70;1.73;;;13.90;51.40;;;;;;5028255;28;20117;-70
2021/04/24 12:37:35;;;;;;;5.20;2.33;;;13.90;52.00;;;;;;5030390;28;20041;-70
2021/04/24 12:40:10;;;;;;;5.22;1.65;;;13.60;51.50;;;;;;5030784;28;20514;-70
2021/04/24 12:42:36;;;;;;;4.45;1.58;;;13.60;52.70;;;;;;5030676;28;20112;-70
2021/04/24 12:45:13;;;;;;;5.93;1.73;;;13.70;54.00;;;;;;5025937;28;20124;-70
2021/04/24 12:47:40;;;;;;;4.43;1.13;;;13.70;52.60;;;;;;5026500;28;20037;-70
2021/04/24 12:50:10;;;;;;;5.07;1.85;;;13.80;52.30;;;;;;5029955;28;20048;-71
2021/04/24 12:52:48;;;;;;;6.53;1.70;;;14.00;53.80;;;;;;5028918;28;20034;-69